Time;durP1;ratioP1;P1;durP2;ratioP2;P2;SDS_P1;SDS_P2;PMS_P1;PMS_P2;Temp;Humidity;BMP_temperature;BMP_pressure;BME280_temperature;BME280_humidity;BME280_pressure;Samples;Min_cycle;Max_cycle;Signal;HPM_P1;HPM_P2
2021/12/28 00:00:59;;;;;;;18.75;11.48;;;8.00;86.50;;;;;;5019186;28;20025;-79
2021/12/28 00:03:25;;;;;;;19.50;11.57;;;8.00;86.50;;;;;;5018636;28;20033;-79
2021/12/28 00:05:51;;;;;;;18.60;11.20;;;8.00;86.50;;;;;;5037323;28;20029;-78
2021/12/28 00:08:19;;;;;;;19.70;11.93;;;8.00;86.60;;;;;;5018569;28;20021;-79
2021/12/28 00:10:45;;;;;;;17.23;10.70;;;8.00;86.60;;;;;;5018611;28;20029;-79
2021/12/28 00:13:11;;;;;;;19.77;11.95;;;8.00;86.60;;;;;;5018221;28;20021;-79
2021/12/28 00:18:20;;;;;;;17.63;10.68;;;8.00;86.60;;;;;;5035990;28;20029;-80
2021/12/28 00:20:48;;;;;;;15.75;9.65;;;8.00;86.60;;;;;;5018002;28;20028;-79
2021/12/28 00:23:18;;;;;;;17.48;11.02;;;8.00;86.60;;;;;;5018100;28;20037;-78
2021/12/28 00:25:46;;;;;;;16.33;10.20;;;8.00;86.70;;;;;;5018648;28;20029;-79
2021/12/28 00:28:12;;;;;;;15.57;10.15;;;8.00;87.20;;;;;;5018013;28;20464;-79
2021/12/28 00:30:38;;;;;;;15.55;9.45;;;8.00;86.70;;;;;;5018010;28;20093;-79
2021/12/28 00:33:04;;;;;;;15.55;9.75;;;8.00;86.70;;;;;;5018057;28;20079;-78
2021/12/28 00:35:36;;;;;;;15.18;9.77;;;8.00;86.70;;;;;;5017694;28;20075;-79
2021/12/28 00:38:07;;;;;;;14.90;9.38;;;8.00;86.80;;;;;;5017740;28;20021;-79
2021/12/28 00:40:33;;;;;;;14.18;8.85;;;8.00;86.80;;;;;;5017643;28;20022;-79
2021/12/28 00:42:59;;;;;;;14.63;8.80;;;8.00;87.30;;;;;;5017525;28;20025;-78
2021/12/28 00:45:25;;;;;;;15.60;9.00;;;8.00;86.80;;;;;;5035252;28;20614;-78
2021/12/28 00:47:51;;;;;;;14.65;8.82;;;8.00;86.80;;;;;;5017658;28;20026;-79
2021/12/28 00:50:18;;;;;;;13.75;8.75;;;8.00;86.80;;;;;;5016954;28;20091;-79
2021/12/28 00:52:44;;;;;;;14.23;8.70;;;8.00;86.70;;;;;;5034571;28;20391;-79
2021/12/28 00:55:12;;;;;;;14.30;9.23;;;8.00;86.80;;;;;;5017144;28;20411;-79
2021/12/28 00:57:38;;;;;;;12.55;8.32;;;8.00;86.80;;;;;;5035128;28;20018;-78
2021/12/28 01:00:07;;;;;;;14.52;8.77;;;8.00;86.80;;;;;;5017413;28;20056;-79
2021/12/28 01:02:32;;;;;;;13.27;8.38;;;8.00;86.70;;;;;;5016860;28;20033;-80
2021/12/28 01:04:58;;;;;;;13.43;8.40;;;8.00;86.80;;;;;;5017222;28;20491;-79
2021/12/28 01:07:24;;;;;;;12.40;7.93;;;8.00;86.80;;;;;;5016838;28;20092;-78
2021/12/28 01:09:49;;;;;;;13.45;8.40;;;8.00;86.70;;;;;;5016740;28;20497;-78
2021/12/28 01:12:15;;;;;;;15.27;8.73;;;8.00;86.70;;;;;;5016615;28;20037;-79
2021/12/28 01:14:41;;;;;;;13.25;7.90;;;8.00;86.80;;;;;;5034811;28;20069;-79
2021/12/28 01:17:06;;;;;;;12.85;7.70;;;8.00;86.80;;;;;;5016607;28;20037;-79
2021/12/28 01:19:33;;;;;;;13.00;7.68;;;8.00;86.90;;;;;;5016811;28;20039;-78
2021/12/28 01:22:01;;;;;;;13.60;8.55;;;8.00;86.90;;;;;;5016447;28;20063;-78
2021/12/28 01:24:28;;;;;;;13.23;8.48;;;8.00;86.80;;;;;;5016886;28;20072;-78
2021/12/28 01:26:53;;;;;;;13.68;8.52;;;8.00;86.80;;;;;;5035070;28;20052;-79
2021/12/28 01:29:19;;;;;;;13.80;8.38;;;8.00;86.80;;;;;;5038154;28;20029;-79
2021/12/28 01:31:47;;;;;;;13.98;8.73;;;8.00;86.80;;;;;;5038521;28;20080;-79
2021/12/28 01:34:13;;;;;;;12.38;8.27;;;8.00;86.90;;;;;;5020299;28;20017;-78
2021/12/28 01:36:38;;;;;;;11.90;7.70;;;8.00;86.80;;;;;;5020553;28;20033;-79
2021/12/28 01:39:07;;;;;;;11.65;7.75;;;8.00;86.80;;;;;;5020979;28;20067;-80
2021/12/28 01:41:33;;;;;;;11.93;7.72;;;8.00;86.80;;;;;;5020722;28;20030;-79
2021/12/28 01:44:02;;;;;;;13.50;8.15;;;8.00;86.80;;;;;;5020819;28;20116;-80
2021/12/28 01:46:28;;;;;;;12.50;7.78;;;8.00;86.80;;;;;;5021834;28;20089;-80
2021/12/28 01:48:54;;;;;;;11.25;7.28;;;8.00;86.90;;;;;;5039727;28;20178;-79
2021/12/28 01:51:23;;;;;;;12.23;7.40;;;8.00;86.90;;;;;;5021802;28;20502;-80
2021/12/28 01:53:51;;;;;;;11.85;7.50;;;8.00;86.90;;;;;;5039434;28;20017;-80
2021/12/28 01:56:20;;;;;;;12.68;7.72;;;8.00;86.90;;;;;;5039115;28;20018;-79
2021/12/28 01:58:46;;;;;;;13.07;7.68;;;8.00;86.80;;;;;;5021839;28;20112;-79
2021/12/28 02:01:12;;;;;;;12.63;8.05;;;8.00;86.90;;;;;;5021766;28;20120;-79
2021/12/28 02:03:40;;;;;;;10.90;6.80;;;8.00;86.90;;;;;;5021211;28;20068;-79
2021/12/28 02:06:07;;;;;;;12.70;7.30;;;8.00;86.90;;;;;;5022003;28;20025;-79
2021/12/28 02:08:33;;;;;;;14.25;7.38;;;8.00;86.90;;;;;;5021347;28;20069;-79
2021/12/28 02:10:59;;;;;;;14.75;7.50;;;8.00;86.90;;;;;;5039640;28;20033;-79
2021/12/28 02:13:26;;;;;;;11.02;6.75;;;8.00;87.00;;;;;;5020984;28;20075;-79
2021/12/28 02:15:56;;;;;;;12.52;7.15;;;8.00;87.00;;;;;;5039138;28;20386;-79
2021/12/28 02:18:23;;;;;;;11.35;6.80;;;8.00;87.00;;;;;;5021260;28;20022;-79
2021/12/28 02:20:50;;;;;;;13.35;7.10;;;8.00;87.10;;;;;;5020744;28;20469;-79
2021/12/28 02:23:16;;;;;;;10.60;6.45;;;8.00;87.10;;;;;;5020520;28;20030;-81
2021/12/28 02:25:43;;;;;;;12.55;6.85;;;8.00;87.10;;;;;;5020452;28;20048;-78
2021/12/28 02:28:10;;;;;;;12.07;6.85;;;8.00;87.00;;;;;;5038482;28;20475;-79
2021/12/28 02:30:38;;;;;;;11.70;7.07;;;8.00;87.00;;;;;;5020617;28;20080;-78
2021/12/28 02:33:05;;;;;;;11.30;6.10;;;8.00;87.10;;;;;;5020406;28;20063;-79
2021/12/28 02:35:32;;;;;;;10.90;6.47;;;8.00;87.10;;;;;;5037467;28;20100;-79
2021/12/28 02:37:58;;;;;;;10.27;6.03;;;8.00;87.10;;;;;;5037328;28;20536;-79
2021/12/28 02:40:27;;;;;;;10.10;5.90;;;8.00;87.10;;;;;;5037981;28;20112;-79
2021/12/28 02:42:53;;;;;;;11.40;5.40;;;8.00;87.10;;;;;;5019660;28;20559;-79
2021/12/28 02:45:26;;;;;;;10.00;5.90;;;8.00;87.10;;;;;;5019478;28;20482;-79
2021/12/28 02:47:51;;;;;;;9.73;5.68;;;8.00;87.10;;;;;;5019648;28;20029;-78
2021/12/28 02:50:21;;;;;;;10.55;5.50;;;8.00;87.60;;;;;;5019609;28;20124;-78
2021/12/28 02:52:47;;;;;;;8.52;5.30;;;8.00;87.10;;;;;;5019502;28;20053;-80
2021/12/28 02:55:15;;;;;;;10.27;5.57;;;8.00;87.20;;;;;;5038762;28;20036;-80
2021/12/28 02:57:59;;;;;;;9.02;5.10;;;8.00;87.10;;;;;;5039549;28;20025;-80
2021/12/28 03:00:35;;;;;;;8.95;5.13;;;8.00;87.10;;;;;;5039046;28;20371;-79
2021/12/28 03:03:10;;;;;;;9.40;5.60;;;8.00;87.10;;;;;;5020627;28;20034;-79
2021/12/28 03:05:37;;;;;;;14.23;5.10;;;8.00;87.10;;;;;;5021108;28;20033;-79
2021/12/28 03:08:03;;;;;;;10.90;5.72;;;8.00;87.20;;;;;;5038725;28;20480;-79
2021/12/28 03:10:29;;;;;;;10.20;5.10;;;8.00;87.20;;;;;;5020439;28;20483;-80
2021/12/28 03:12:55;;;;;;;9.63;5.25;;;8.00;87.10;;;;;;5020750;28;20037;-79
2021/12/28 03:15:21;;;;;;;9.60;5.00;;;8.00;87.30;;;;;;5020824;28;20017;-78
2021/12/28 03:17:47;;;;;;;8.45;4.78;;;8.00;87.20;;;;;;5020777;28;20104;-79
2021/12/28 03:20:14;;;;;;;9.40;4.70;;;8.00;87.10;;;;;;5019110;28;20179;-79
2021/12/28 03:22:40;;;;;;;8.50;4.70;;;8.00;87.20;;;;;;5019135;28;20491;-80
2021/12/28 03:25:07;;;;;;;8.05;4.38;;;8.00;87.20;;;;;;5036960;28;20072;-79
2021/12/28 03:27:33;;;;;;;9.30;4.50;;;8.00;87.30;;;;;;5037073;28;20056;-80
2021/12/28 03:29:59;;;;;;;7.97;4.40;;;8.00;87.20;;;;;;5019120;28;20021;-80
2021/12/28 03:32:25;;;;;;;8.32;4.65;;;8.00;87.20;;;;;;5037046;28;20053;-79
2021/12/28 03:34:50;;;;;;;7.55;4.60;;;8.00;87.20;;;;;;5018592;28;20529;-79
2021/12/28 03:37:16;;;;;;;8.90;3.97;;;8.00;87.20;;;;;;5018548;28;20244;-79
2021/12/28 03:39:41;;;;;;;7.20;4.25;;;8.00;87.20;;;;;;5035126;28;20021;-82
2021/12/28 03:42:08;;;;;;;7.53;4.25;;;8.00;87.30;;;;;;5018094;28;20021;-79
2021/12/28 03:44:35;;;;;;;9.43;4.15;;;8.00;87.30;;;;;;5018229;28;20120;-78
2021/12/28 03:47:01;;;;;;;8.30;4.10;;;8.00;87.20;;;;;;5018534;28;20487;-79
2021/12/28 03:49:27;;;;;;;8.40;3.92;;;8.00;87.20;;;;;;5035841;28;20033;-79
2021/12/28 03:51:52;;;;;;;7.78;4.00;;;8.00;87.20;;;;;;5018092;28;20036;-79
2021/12/28 03:54:18;;;;;;;7.70;3.85;;;8.00;87.30;;;;;;5018991;28;20021;-79
2021/12/28 03:56:44;;;;;;;6.88;3.85;;;8.00;87.20;;;;;;5018712;28;20057;-81
2021/12/28 03:59:09;;;;;;;7.60;3.90;;;8.00;87.20;;;;;;5019393;28;20056;-79
2021/12/28 04:01:35;;;;;;;6.55;3.22;;;8.00;87.20;;;;;;5018723;28;20441;-79
2021/12/28 04:04:00;;;;;;;7.45;3.78;;;8.00;87.30;;;;;;5018270;28;20029;-79
2021/12/28 04:06:26;;;;;;;6.97;3.72;;;8.00;87.30;;;;;;5018168;28;20128;-79
2021/12/28 04:08:52;;;;;;;6.50;3.58;;;8.00;87.40;;;;;;5017551;28;20033;-79
2021/12/28 04:11:26;;;;;;;7.78;3.88;;;8.00;87.40;;;;;;5018035;28;20029;-79
2021/12/28 04:13:55;;;;;;;6.35;3.45;;;8.00;87.40;;;;;;5035914;28;20554;-79
2021/12/28 04:16:21;;;;;;;6.25;3.35;;;8.00;87.40;;;;;;5018281;28;20566;-78
2021/12/28 04:18:47;;;;;;;6.40;3.50;;;8.00;87.40;;;;;;5017862;28;20120;-79
2021/12/28 04:21:13;;;;;;;6.80;3.25;;;8.00;87.40;;;;;;5018042;28;20028;-79
2021/12/28 04:23:39;;;;;;;5.75;3.15;;;8.00;87.40;;;;;;5017562;28;20465;-79
2021/12/28 04:26:05;;;;;;;6.63;3.17;;;8.00;87.50;;;;;;5017918;28;20029;-78
2021/12/28 04:28:31;;;;;;;5.95;2.95;;;8.00;87.40;;;;;;5017835;28;20037;-78
2021/12/28 04:30:57;;;;;;;7.45;3.28;;;8.00;87.40;;;;;;5035683;28;20409;-79
2021/12/28 04:33:23;;;;;;;5.75;3.10;;;8.00;87.40;;;;;;5018112;28;20043;-79
2021/12/28 04:35:49;;;;;;;6.05;3.10;;;8.00;87.50;;;;;;5017709;28;20029;-79
2021/12/28 04:38:16;;;;;;;6.20;3.13;;;8.00;87.50;;;;;;5017742;28;20017;-79
2021/12/28 04:40:41;;;;;;;6.13;3.00;;;8.00;87.50;;;;;;5035846;28;20395;-79
2021/12/28 04:43:08;;;;;;;5.65;2.80;;;8.00;87.50;;;;;;5017374;28;20025;-79
2021/12/28 04:45:36;;;;;;;6.45;3.00;;;8.00;87.50;;;;;;5017048;28;20479;-78
2021/12/28 04:48:03;;;;;;;5.93;3.00;;;8.00;87.50;;;;;;5017198;28;20199;-78
2021/12/28 04:50:29;;;;;;;6.78;2.97;;;8.00;87.50;;;;;;5017084;28;20556;-81
2021/12/28 04:52:57;;;;;;;6.53;3.25;;;8.00;87.50;;;;;;5020092;28;20033;-80
2021/12/28 04:55:23;;;;;;;6.05;3.00;;;8.00;87.50;;;;;;5020119;28;20092;-80
2021/12/28 04:57:48;;;;;;;6.75;3.15;;;8.00;87.50;;;;;;5020292;28;20025;-79
2021/12/28 05:00:21;;;;;;;9.93;3.38;;;8.00;87.50;;;;;;5020512;28;20026;-79
2021/12/28 05:02:47;;;;;;;5.75;2.88;;;8.00;87.40;;;;;;5038563;28;20248;-79
2021/12/28 05:05:13;;;;;;;6.10;2.80;;;8.00;87.40;;;;;;5041438;28;20017;-80
2021/12/28 05:07:39;;;;;;;7.10;2.90;;;8.00;87.40;;;;;;5041448;28;20079;-79
2021/12/28 05:10:06;;;;;;;5.55;2.55;;;8.00;87.40;;;;;;5023925;28;20057;-79
2021/12/28 05:12:32;;;;;;;6.72;2.80;;;8.00;87.50;;;;;;5023192;28;20021;-78
2021/12/28 05:14:59;;;;;;;6.18;2.63;;;8.00;87.90;;;;;;5040488;28;20022;-79
2021/12/28 05:17:27;;;;;;;6.22;2.78;;;8.00;87.50;;;;;;5023475;28;20026;-80
2021/12/28 05:19:52;;;;;;;8.82;3.05;;;8.00;87.50;;;;;;5023470;28;20025;-79
2021/12/28 05:22:18;;;;;;;6.60;2.72;;;8.00;87.50;;;;;;5032983;23;20068;-80
2021/12/28 05:24:44;;;;;;;5.60;2.80;;;8.00;87.40;;;;;;5015924;28;20057;-78
2021/12/28 05:27:09;;;;;;;6.78;3.03;;;8.00;87.40;;;;;;5015912;28;20036;-78
2021/12/28 05:29:35;;;;;;;6.88;2.70;;;8.00;87.40;;;;;;5016947;28;20037;-78
2021/12/28 05:32:01;;;;;;;5.05;2.45;;;8.00;87.40;;;;;;5019091;28;20037;-80
2021/12/28 05:34:26;;;;;;;5.80;2.60;;;8.00;87.50;;;;;;5009447;28;20022;-79
2021/12/28 05:36:52;;;;;;;5.55;2.80;;;8.00;87.40;;;;;;5000341;28;20049;-78
2021/12/28 05:39:17;;;;;;;5.20;2.40;;;8.00;87.50;;;;;;4999476;28;20459;-79
2021/12/28 06:25:29;;;;;;;11.50;4.95;;;8.00;87.70;;;;;;5035668;28;20041;-79
2021/12/28 06:27:55;;;;;;;12.07;5.38;;;8.60;88.00;;;;;;5034602;28;20021;-79
2021/12/28 06:30:20;;;;;;;9.55;5.03;;;8.00;87.80;;;;;;5034980;28;20051;-78
2021/12/28 06:32:46;;;;;;;9.82;5.05;;;8.00;87.70;;;;;;5034191;28;20030;-78
2021/12/28 06:35:12;;;;;;;11.50;5.22;;;8.00;88.40;;;;;;5035351;28;20112;-78
2021/12/28 06:37:38;;;;;;;10.43;4.82;;;8.00;88.40;;;;;;5034299;28;20112;-78
2021/12/28 06:40:05;;;;;;;8.75;5.22;;;8.00;88.20;;;;;;5035296;28;20033;-78
2021/12/28 06:42:31;;;;;;;9.68;5.47;;;8.00;88.20;;;;;;5034073;28;20021;-80
2021/12/28 06:44:56;;;;;;;11.10;5.35;;;8.00;88.00;;;;;;5035473;28;20041;-80
2021/12/28 06:47:22;;;;;;;10.30;5.03;;;8.00;88.00;;;;;;5034388;28;20025;-80
2021/12/28 06:49:48;;;;;;;8.65;5.20;;;8.00;88.00;;;;;;5034451;28;20029;-78
2021/12/28 06:52:14;;;;;;;9.98;5.07;;;8.00;87.90;;;;;;5033829;28;20029;-78
2021/12/28 06:54:39;;;;;;;9.73;5.75;;;8.00;87.90;;;;;;5033737;28;20028;-80
2021/12/28 06:57:07;;;;;;;9.50;5.47;;;8.00;87.90;;;;;;5033986;28;20024;-79
2021/12/28 06:59:37;;;;;;;7.80;4.93;;;8.00;87.90;;;;;;5034175;28;20108;-78
2021/12/28 07:02:04;;;;;;;9.68;5.35;;;8.00;87.80;;;;;;5033984;28;20018;-79
2021/12/28 07:04:30;;;;;;;9.52;5.63;;;8.00;87.80;;;;;;5033768;28;20057;-79
2021/12/28 07:06:55;;;;;;;9.50;5.40;;;8.00;87.90;;;;;;5033674;28;20057;-78
2021/12/28 07:09:21;;;;;;;8.68;5.25;;;8.00;87.80;;;;;;5034777;28;20030;-78
2021/12/28 07:11:46;;;;;;;9.98;5.32;;;8.00;87.80;;;;;;5033446;28;20025;-80
2021/12/28 07:14:12;;;;;;;8.80;5.57;;;8.00;87.80;;;;;;5033490;28;20035;-78
2021/12/28 07:16:38;;;;;;;10.25;5.50;;;8.00;87.70;;;;;;5033634;28;20025;-79
2021/12/28 07:19:09;;;;;;;12.27;5.65;;;8.00;87.80;;;;;;5033582;28;20018;-78
2021/12/28 07:21:36;;;;;;;10.77;6.13;;;8.00;87.80;;;;;;5033489;28;20061;-79
2021/12/28 07:24:02;;;;;;;8.98;5.68;;;8.00;87.90;;;;;;5033220;28;20061;-78
2021/12/28 07:26:27;;;;;;;10.02;5.75;;;8.00;87.90;;;;;;5032494;28;20064;-80
2021/12/28 07:28:53;;;;;;;10.55;5.97;;;8.00;87.80;;;;;;5034622;28;20037;-78
2021/12/28 07:31:19;;;;;;;10.75;6.15;;;8.00;87.90;;;;;;5033271;28;20021;-78
2021/12/28 07:33:44;;;;;;;11.00;6.30;;;8.00;87.90;;;;;;5032854;28;20021;-78
2021/12/28 07:36:10;;;;;;;12.15;6.72;;;8.00;87.90;;;;;;5033105;28;20029;-78
2021/12/28 07:38:35;;;;;;;12.25;7.10;;;8.00;87.90;;;;;;5033680;28;20060;-78
2021/12/28 07:41:01;;;;;;;11.65;7.28;;;8.00;87.80;;;;;;5033408;28;20434;-78
2021/12/28 07:43:27;;;;;;;14.98;7.80;;;8.00;87.90;;;;;;5033263;28;20026;-78
2021/12/28 07:45:52;;;;;;;15.25;8.32;;;8.10;88.00;;;;;;5033151;28;20026;-78
2021/12/28 07:48:18;;;;;;;14.48;8.15;;;8.00;87.90;;;;;;5032978;28;20018;-79
2021/12/28 07:50:43;;;;;;;14.05;8.50;;;8.00;87.90;;;;;;5034257;28;20395;-78
2021/12/28 07:53:09;;;;;;;12.93;8.32;;;8.00;88.00;;;;;;5033167;28;20033;-77
2021/12/28 07:55:34;;;;;;;15.20;8.27;;;8.00;88.00;;;;;;5032900;28;20033;-78
2021/12/28 07:58:00;;;;;;;14.70;8.57;;;8.00;88.00;;;;;;5032947;28;20026;-78
2021/12/28 08:00:26;;;;;;;14.82;8.52;;;8.10;88.10;;;;;;5033036;28;20021;-78
2021/12/28 08:02:52;;;;;;;13.85;8.38;;;8.10;88.10;;;;;;5032760;28;20430;-78
2021/12/28 08:05:18;;;;;;;14.80;8.73;;;8.10;88.10;;;;;;5033920;28;20029;-78
2021/12/28 08:07:43;;;;;;;15.98;8.80;;;8.00;88.10;;;;;;5033254;28;20032;-78
2021/12/28 08:10:12;;;;;;;15.57;8.63;;;8.00;88.10;;;;;;5032751;28;20025;-78
2021/12/28 08:12:38;;;;;;;14.70;8.85;;;8.00;88.20;;;;;;5032537;28;20021;-78
2021/12/28 08:15:06;;;;;;;15.60;8.90;;;8.00;88.10;;;;;;5032353;28;20045;-79
2021/12/28 08:17:32;;;;;;;16.95;9.70;;;8.00;88.20;;;;;;5032489;28;20113;-79
2021/12/28 08:19:57;;;;;;;15.10;8.55;;;8.00;88.70;;;;;;5032625;28;20041;-78
2021/12/28 08:22:23;;;;;;;14.25;8.95;;;8.10;88.10;;;;;;5032213;28;20033;-78
2021/12/28 08:24:49;;;;;;;16.35;9.38;;;8.10;87.90;;;;;;5032259;28;20458;-78
2021/12/28 08:27:15;;;;;;;15.45;9.00;;;8.10;87.70;;;;;;5032125;28;20063;-78
2021/12/28 08:29:40;;;;;;;13.90;8.88;;;8.20;87.60;;;;;;5033316;28;20128;-81
2021/12/28 08:32:06;;;;;;;15.88;8.35;;;8.30;87.40;;;;;;5031684;28;20538;-77
2021/12/28 08:34:32;;;;;;;14.65;8.63;;;8.30;87.20;;;;;;5032514;28;20032;-78
2021/12/28 08:36:57;;;;;;;13.88;8.25;;;8.30;87.20;;;;;;5032065;28;20033;-79
2021/12/28 08:39:23;;;;;;;13.20;8.40;;;8.30;87.10;;;;;;5031927;28;20017;-78
2021/12/28 08:41:48;;;;;;;13.32;8.02;;;8.30;87.10;;;;;;5031671;28;20022;-78
2021/12/28 08:44:14;;;;;;;13.93;8.20;;;8.30;87.10;;;;;;5031294;28;20021;-78
2021/12/28 08:46:40;;;;;;;13.25;8.35;;;8.30;87.10;;;;;;5032051;28;20033;-78
2021/12/28 08:49:05;;;;;;;15.27;8.98;;;8.30;87.10;;;;;;5031499;28;20026;-78
2021/12/28 08:51:31;;;;;;;13.07;7.72;;;8.30;87.10;;;;;;5031563;28;20022;-78
2021/12/28 08:53:57;;;;;;;14.20;8.52;;;8.40;87.00;;;;;;5031334;28;20028;-78
2021/12/28 08:56:23;;;;;;;13.80;7.95;;;8.40;87.20;;;;;;5031652;28;20029;-78
2021/12/28 08:58:51;;;;;;;14.93;8.68;;;8.50;87.10;;;;;;5032558;28;20047;-77
2021/12/28 09:01:17;;;;;;;13.73;7.88;;;8.50;87.10;;;;;;5031958;28;20028;-78
2021/12/28 09:03:42;;;;;;;11.82;7.60;;;8.60;87.10;;;;;;5031474;28;20029;-78
2021/12/28 09:06:08;;;;;;;12.52;7.80;;;8.70;87.20;;;;;;5032730;28;20030;-77
2021/12/28 09:08:33;;;;;;;13.43;8.63;;;8.70;86.80;;;;;;5031719;28;20027;-78
2021/12/28 09:10:59;;;;;;;12.88;7.80;;;8.70;86.70;;;;;;5031796;28;20025;-78
2021/12/28 09:13:25;;;;;;;12.85;7.78;;;8.70;86.50;;;;;;5031293;28;20112;-77
2021/12/28 09:15:50;;;;;;;12.32;7.38;;;8.70;86.30;;;;;;5031898;28;20025;-78
2021/12/28 09:18:16;;;;;;;12.77;7.55;;;8.70;86.30;;;;;;5032053;28;20020;-78
2021/12/28 09:20:42;;;;;;;13.55;8.15;;;8.60;85.70;;;;;;5032086;28;20021;-78
2021/12/28 09:23:09;;;;;;;12.52;7.20;;;8.70;85.70;;;;;;5032087;28;20056;-78
2021/12/28 09:25:35;;;;;;;12.43;7.22;;;8.60;86.00;;;;;;5031885;28;20029;-79
2021/12/28 09:28:01;;;;;;;14.82;7.93;;;8.70;86.10;;;;;;5031972;28;20028;-79
2021/12/28 09:30:27;;;;;;;12.27;6.55;;;8.80;86.30;;;;;;5032006;28;20390;-78
2021/12/28 09:32:53;;;;;;;10.40;6.53;;;8.80;86.20;;;;;;5032037;28;20029;-78
2021/12/28 09:35:19;;;;;;;12.68;7.00;;;8.90;86.00;;;;;;5032216;28;20028;-79
2021/12/28 09:37:45;;;;;;;12.45;7.43;;;8.90;85.90;;;;;;5034200;28;20109;-78
2021/12/28 09:40:12;;;;;;;12.45;7.43;;;9.00;85.70;;;;;;5032943;28;20108;-79
2021/12/28 09:42:41;;;;;;;12.10;8.32;;;9.00;85.60;;;;;;5032005;28;20120;-76
2021/12/28 09:45:09;;;;;;;12.68;8.52;;;8.90;85.20;;;;;;5032617;28;20044;-78
2021/12/28 09:47:35;;;;;;;12.38;8.63;;;8.90;84.80;;;;;;5049196;28;20029;-79
2021/12/28 09:50:01;;;;;;;13.15;8.43;;;8.80;84.80;;;;;;5034610;28;20025;-78
2021/12/28 09:52:27;;;;;;;16.90;8.93;;;8.80;85.20;;;;;;5035249;28;20021;-77
2021/12/28 09:54:52;;;;;;;18.15;9.18;;;8.70;85.40;;;;;;5036139;28;20024;-78
2021/12/28 09:57:19;;;;;;;23.20;8.85;;;8.80;85.70;;;;;;5034085;28;20020;-78
2021/12/28 09:59:45;;;;;;;22.77;8.82;;;8.80;85.40;;;;;;5035593;28;20021;-78
2021/12/28 10:02:11;;;;;;;15.95;7.65;;;8.80;85.20;;;;;;5034322;28;20033;-78
2021/12/28 10:04:58;;;;;;;12.27;7.65;;;8.80;85.20;;;;;;5033863;28;20036;-78
2021/12/28 10:07:30;;;;;;;14.73;7.82;;;8.80;85.20;;;;;;5034294;28;20441;-78
2021/12/28 10:09:56;;;;;;;15.38;6.68;;;8.80;85.00;;;;;;5050558;28;20032;-78
2021/12/28 10:12:32;;;;;;;15.00;7.70;;;8.80;85.00;;;;;;5033792;28;20033;-78
2021/12/28 10:15:04;;;;;;;12.27;6.90;;;8.70;85.20;;;;;;5034555;28;20087;-78
2021/12/28 10:17:32;;;;;;;21.52;7.57;;;8.70;86.10;;;;;;5034729;28;20056;-78
2021/12/28 10:19:59;;;;;;;15.43;7.30;;;8.70;85.90;;;;;;5034450;28;20033;-78
2021/12/28 10:22:35;;;;;;;13.18;6.80;;;8.70;85.90;;;;;;5035618;28;20021;-79
2021/12/28 10:25:14;;;;;;;14.20;5.70;;;8.70;85.90;;;;;;5034981;28;20116;-78
2021/12/28 10:27:48;;;;;;;11.27;5.45;;;8.70;88.20;;;;;;5034795;28;20052;-78
2021/12/28 10:30:40;;;;;;;21.20;6.05;;;8.70;89.60;;;;;;5035044;28;20513;-79
2021/12/28 10:33:11;;;;;;;16.42;6.15;;;8.70;88.60;;;;;;5007075;28;20049;-76
2021/12/28 10:35:44;;;;;;;12.80;6.00;;;8.60;86.90;;;;;;5034086;28;20022;-78
2021/12/28 10:38:13;;;;;;;10.75;5.05;;;8.60;86.60;;;;;;5035775;28;20112;-78
2021/12/28 10:40:55;;;;;;;18.38;5.95;;;8.60;86.60;;;;;;5034180;28;20091;-78
2021/12/28 10:43:23;;;;;;;10.68;5.40;;;8.60;86.70;;;;;;5034424;28;20083;-77
2021/12/28 10:46:04;;;;;;;17.15;5.80;;;8.50;86.70;;;;;;5034147;28;20033;-78
2021/12/28 10:48:41;;;;;;;10.77;4.53;;;8.50;86.80;;;;;;5033351;28;20438;-78
2021/12/28 10:51:11;;;;;;;13.95;5.18;;;8.50;87.60;;;;;;5033820;28;20060;-79
2021/12/28 10:56:20;;;;;;;9.32;5.18;;;8.50;86.80;;;;;;5035397;28;20018;-78
2021/12/28 10:58:48;;;;;;;13.93;5.13;;;8.50;86.80;;;;;;5033602;28;20048;-78
2021/12/28 11:01:20;;;;;;;9.57;5.10;;;8.50;86.90;;;;;;5032582;28;20415;-78
2021/12/28 11:03:58;;;;;;;11.45;4.93;;;8.50;86.90;;;;;;5033270;28;20613;-78
2021/12/28 11:06:29;;;;;;;9.23;4.57;;;8.50;87.00;;;;;;5034744;28;20075;-78
2021/12/28 11:08:58;;;;;;;9.32;4.75;;;8.50;87.00;;;;;;5033488;28;20025;-78
2021/12/28 11:11:25;;;;;;;7.95;4.47;;;8.50;87.10;;;;;;5033701;28;20029;-77
2021/12/28 11:13:58;;;;;;;13.35;4.97;;;8.50;87.10;;;;;;5033740;28;20068;-78
2021/12/28 11:16:26;;;;;;;10.63;5.13;;;8.50;87.10;;;;;;5033350;28;20036;-78
2021/12/28 11:18:57;;;;;;;9.45;4.82;;;8.40;87.10;;;;;;5033475;28;20045;-77
2021/12/28 11:21:29;;;;;;;9.75;4.80;;;8.40;87.20;;;;;;5033410;28;20502;-80
2021/12/28 11:24:02;;;;;;;10.80;5.03;;;8.40;87.20;;;;;;5052918;22;20047;-82
2021/12/28 11:26:30;;;;;;;9.02;4.88;;;8.40;87.20;;;;;;5038448;28;20021;-80
2021/12/28 11:29:06;;;;;;;10.40;5.20;;;8.40;87.20;;;;;;5039682;28;20032;-80
2021/12/28 11:31:47;;;;;;;8.05;4.25;;;8.40;87.30;;;;;;5039563;28;20021;-81
2021/12/28 11:34:20;;;;;;;7.93;4.45;;;8.40;87.30;;;;;;5038793;28;20027;-81
2021/12/28 11:36:49;;;;;;;8.13;4.80;;;8.40;87.40;;;;;;5039351;28;20037;-81
2021/12/28 11:39:18;;;;;;;8.05;4.60;;;8.40;87.40;;;;;;5039748;28;20025;-80
2021/12/28 11:41:46;;;;;;;8.02;4.25;;;8.40;87.40;;;;;;5041450;28;20033;-81
2021/12/28 11:44:12;;;;;;;9.32;4.40;;;8.40;87.50;;;;;;5039407;28;20026;-80
2021/12/28 11:46:38;;;;;;;8.93;4.63;;;8.40;87.40;;;;;;5039945;28;20033;-81
2021/12/28 11:49:06;;;;;;;8.27;4.25;;;8.40;87.40;;;;;;5039304;28;20034;-81
2021/12/28 11:51:33;;;;;;;8.65;4.85;;;8.40;87.40;;;;;;5039608;28;20029;-80
2021/12/28 11:54:03;;;;;;;7.85;4.25;;;8.50;87.70;;;;;;5039177;28;20021;-81
2021/12/28 11:56:31;;;;;;;8.00;3.92;;;8.50;87.70;;;;;;5040340;28;20021;-81
2021/12/28 11:58:57;;;;;;;8.55;4.15;;;8.50;87.60;;;;;;5039882;28;20037;-80
2021/12/28 12:01:51;;;;;;;7.82;4.30;;;8.50;87.40;;;;;;5041449;28;20013;-80
2021/12/28 12:04:32;;;;;;;8.30;4.07;;;8.50;87.40;;;;;;5038828;28;20386;-80
2021/12/28 12:07:14;;;;;;;6.75;3.65;;;8.50;87.30;;;;;;5038350;28;20025;-81
2021/12/28 12:09:49;;;;;;;6.47;3.58;;;8.50;87.40;;;;;;5038116;28;20529;-80
2021/12/28 12:12:17;;;;;;;6.75;3.78;;;8.50;87.40;;;;;;5036642;28;20091;-82
2021/12/28 12:14:55;;;;;;;7.10;3.67;;;8.50;87.40;;;;;;5039060;28;20022;-81
2021/12/28 12:17:43;;;;;;;8.07;3.78;;;8.50;87.30;;;;;;5038259;28;20025;-81
2021/12/28 12:20:22;;;;;;;6.72;3.47;;;8.50;87.30;;;;;;5039495;28;20056;-82
2021/12/28 12:22:52;;;;;;;5.20;3.00;;;8.50;87.40;;;;;;5038225;28;20502;-81
2021/12/28 12:25:29;;;;;;;7.40;3.47;;;8.50;87.90;;;;;;5040171;28;20029;-80
2021/12/28 12:28:00;;;;;;;6.70;3.40;;;8.50;87.40;;;;;;5039158;28;20574;-81
2021/12/28 12:30:27;;;;;;;6.95;3.40;;;8.50;87.40;;;;;;5037121;28;20025;-80
2021/12/28 12:33:00;;;;;;;7.95;3.25;;;8.50;87.50;;;;;;5040042;28;20028;-80
2021/12/28 12:35:36;;;;;;;5.88;2.55;;;8.50;88.80;;;;;;5038071;28;20026;-80
2021/12/28 12:38:14;;;;;;;6.82;2.40;;;8.50;90.80;;;;;;5037624;28;20426;-81
2021/12/28 12:41:08;;;;;;;5.00;2.50;;;8.60;92.20;;;;;;5036950;28;20391;-80
2021/12/28 12:43:47;;;;;;;5.53;2.40;;;8.60;91.10;;;;;;5036531;28;20025;-81
2021/12/28 12:46:18;;;;;;;4.85;2.30;;;8.60;89.80;;;;;;5037919;28;20029;-80
2021/12/28 12:48:43;;;;;;;7.00;2.55;;;8.60;89.30;;;;;;5037185;28;20110;-80
2021/12/28 12:51:21;;;;;;;5.28;2.40;;;8.50;89.10;;;;;;5037039;28;20494;-79
2021/12/28 12:54:02;;;;;;;4.30;2.10;;;8.50;89.00;;;;;;5037429;28;20021;-79
2021/12/28 12:56:33;;;;;;;5.43;2.40;;;8.50;89.00;;;;;;5040571;28;20093;-79
2021/12/28 12:59:21;;;;;;;5.13;2.38;;;8.50;89.00;;;;;;5040937;28;20026;-81
2021/12/28 13:01:47;;;;;;;6.80;2.30;;;8.50;88.90;;;;;;5039665;28;20029;-79
2021/12/28 13:04:25;;;;;;;4.28;2.10;;;8.40;88.90;;;;;;5036778;28;20026;-80
2021/12/28 13:07:23;;;;;;;4.45;2.10;;;8.40;88.90;;;;;;5034353;28;20061;-80
2021/12/28 13:09:58;;;;;;;6.40;2.50;;;8.40;88.90;;;;;;5034623;28;20025;-78
2021/12/28 13:12:25;;;;;;;4.63;2.10;;;8.40;88.80;;;;;;5032829;28;20037;-78
2021/12/28 13:14:51;;;;;;;4.13;1.88;;;8.40;89.40;;;;;;5032477;28;20025;-79
2021/12/28 13:17:22;;;;;;;3.15;1.90;;;8.40;89.10;;;;;;5033026;28;20137;-77
2021/12/28 13:19:56;;;;;;;2.83;1.65;;;8.50;89.10;;;;;;5035908;28;20110;-79
2021/12/28 13:22:22;;;;;;;3.88;2.10;;;8.40;88.90;;;;;;5039322;28;20033;-81
2021/12/28 13:24:49;;;;;;;3.63;1.92;;;8.40;88.80;;;;;;5046211;28;20405;-81
2021/12/28 13:27:17;;;;;;;4.68;2.20;;;8.40;89.00;;;;;;5049525;28;20081;-80
2021/12/28 13:29:43;;;;;;;3.00;1.80;;;9.50;89.70;;;;;;5050112;28;20009;-81
2021/12/28 13:32:23;;;;;;;3.42;2.00;;;8.40;89.10;;;;;;5045943;28;20391;-80
2021/12/28 13:35:02;;;;;;;4.10;2.00;;;8.40;89.40;;;;;;5043655;28;20040;-80
2021/12/28 13:37:50;;;;;;;4.07;1.95;;;8.40;89.40;;;;;;5038386;28;20032;-80
2021/12/28 13:40:18;;;;;;;4.25;1.90;;;8.40;89.50;;;;;;5044453;28;20028;-80
2021/12/28 13:42:47;;;;;;;4.22;1.73;;;8.50;89.30;;;;;;5043727;28;20033;-79
2021/12/28 13:45:39;;;;;;;3.47;1.70;;;8.50;89.10;;;;;;5036139;28;20112;-78